Aérodrome :
LOGIN :

S'inscrire | Disclaimer

   EN    FR    IT 

 










Légende :    VFR   VFR Marginal   IFR   IFR Intensif   IFR Très Intensif
Visi : 
Plafond : 
>= 8 km
>= 3000ft
5 à 8 km
1000 à 3000 ft
1500m à 5 km
500 à 1000 ft
800 à 1500m
200 à 500 ft
< 800m
< 200 ft
Symboles :   Orages  Brouillard  Fortes neiges  Fortes précipitations  Vent > 20 kt
SIGMETs :   Divers  Orages  Givrage  Turbulence  Onde Orograph.  Cendres Volcan.






- Altitude de l'aérodrome : 935 ft


EBFS - Florennes

DERNIER METAR :
  • 191725Z AUTO VRB02KT 9999 FEW080/// BKN095/// OVC110/// 10/10 Q1005 BLU

METARs EXPIRÉS :
  • 191713Z AUTO 20004KT 9999 FEW008/// BKN100/// BKN140/// 11/10 Q1005 BLU
  • 191655Z AUTO 19005KT 9999 FEW006/// SCT014/// BKN130/// 11/10 Q1005 GRN
  • 191633Z AUTO 18005KT 9999 FEW006/// SCT013/// BKN026/// 11/11 Q1005 GRN
  • 191621Z AUTO 18006KT 9999 FEW007/// SCT012/// BKN025/// 11/11 Q1005 GRN
  • 191555Z AUTO 20008KT 9999 FEW006/// SCT009/// BKN021/// 11/11 Q1005 GRN
  • 191525Z AUTO 20007KT 9999 FEW007/// SCT009/// BKN011/// 12/11 Q1005 GRN
  • 191455Z AUTO 19006KT 9999 FEW006/// SCT012/// BKN042/// 12/11 Q1005 GRN

TAF TAF EBFS
Valide du 19 à 13h jusqu'au 19 à 22h UTC


191141Z 1913/1922 20008KT 9999 SCT020 BKN030
TEMPO 1913/1915 22012G22KT 5000 -SHRA FEW010 SCT015TCU BKN020
TEMPO 1913/1915 3000 SHRA SCT007 BKN012TCU
TEMPO 1918/1922 6000 -RA SCT012 BKN100



MET'MAP, la Météo Aéronautique d'un coup d'oeil ! - Copyright ORBIFLY Décembre 2007 - Disclaimer

ORBIFLY MET'MAP TEAM :

Programmation & Développement : Alexandra Zaïnal
Conception & Développement : Baudouin d'Aumeries
Co-Programmation & Développement : Marc-Olivier Méhu
Soutien technique & logistique : Manuel Goepfert

Contact : metmap@orbifly.com




SOURCES & CREDITS :

   NOAA